Time;durP1;ratioP1;P1;durP2;ratioP2;P2;SDS_P1;SDS_P2;PMS_P1;PMS_P2;Temp;Humidity;BMP_temperature;BMP_pressure;BME280_temperature;BME280_humidity;BME280_pressure;Samples;Min_cycle;Max_cycle;Signal;HPM_P1;HPM_P2
2021/07/07 00:00:32;;;;;;;11.30;2.28;;;;;;;;;;4392174;32;20139;-81
2021/07/07 00:03:00;;;;;;;4.12;2.20;;;;;;;;;;4377851;32;20230;-80
2021/07/07 00:05:25;;;;;;;6.45;2.42;;;;;;;;;;4391770;32;20135;-80
2021/07/07 00:07:53;;;;;;;7.32;2.60;;;;;;;;;;4392036;32;20506;-79
2021/07/07 00:10:19;;;;;;;9.63;2.78;;;;;;;;;;4392104;32;20177;-80
2021/07/07 00:12:45;;;;;;;9.82;2.55;;;;;;;;;;4390763;32;20143;-80
2021/07/07 00:15:12;;;;;;;4.85;2.15;;;;;;;;;;4391925;32;20173;-80
2021/07/07 00:17:41;;;;;;;9.07;2.75;;;;;;;;;;4392343;32;20161;-80
2021/07/07 00:20:10;;;;;;;7.10;2.22;;;;;;;;;;4391578;32;20158;-80
2021/07/07 00:22:38;;;;;;;6.97;2.50;;;;;;;;;;4391931;32;20169;-80
2021/07/07 00:25:04;;;;;;;8.75;2.47;;;;;;;;;;4391742;32;20161;-80
2021/07/07 00:27:31;;;;;;;9.02;3.10;;;;;;;;;;4391882;32;20185;-79
2021/07/07 00:29:57;;;;;;;9.18;3.30;;;;;;;;;;4392139;32;20208;-79
2021/07/07 00:32:22;;;;;;;9.38;3.37;;;;;;;;;;4377689;32;20507;-80
2021/07/07 00:34:48;;;;;;;6.22;3.22;;;;;;;;;;4391222;32;20158;-81
2021/07/07 00:37:21;;;;;;;6.78;3.20;;;;;;;;;;4377466;32;20216;-80
2021/07/07 00:39:46;;;;;;;13.25;3.37;;;;;;;;;;4392100;32;20558;-80
2021/07/07 00:42:11;;;;;;;10.35;2.62;;;;;;;;;;4376895;32;20167;-80
2021/07/07 00:44:40;;;;;;;6.07;3.15;;;;;;;;;;4391297;32;20142;-80
2021/07/07 00:47:06;;;;;;;7.05;3.00;;;;;;;;;;4377838;32;20138;-80
2021/07/07 00:49:31;;;;;;;8.10;3.40;;;;;;;;;;4391421;32;20171;-80
2021/07/07 00:51:56;;;;;;;7.90;3.40;;;;;;;;;;4391462;32;20538;-80
2021/07/07 00:54:23;;;;;;;7.75;3.00;;;;;;;;;;4391548;32;20139;-80
2021/07/07 00:57:04;;;;;;;9.05;3.25;;;;;;;;;;4403115;32;20161;-80
2021/07/07 00:59:32;;;;;;;8.10;3.30;;;;;;;;;;4392350;32;20170;-80
2021/07/07 01:02:00;;;;;;;9.55;3.55;;;;;;;;;;4392307;32;20158;-80
2021/07/07 01:04:25;;;;;;;10.10;3.75;;;;;;;;;;4405959;32;20614;-80
2021/07/07 01:06:51;;;;;;;8.55;3.15;;;;;;;;;;4392547;32;20154;-80
2021/07/07 01:09:19;;;;;;;10.05;3.10;;;;;;;;;;4406227;32;20135;-80
2021/07/07 01:11:44;;;;;;;10.05;3.40;;;;;;;;;;4406006;32;20599;-80
2021/07/07 01:14:10;;;;;;;17.17;3.80;;;;;;;;;;4406753;32;20170;-80
2021/07/07 01:16:35;;;;;;;7.37;3.10;;;;;;;;;;4391158;32;20165;-80
2021/07/07 01:19:01;;;;;;;8.02;3.25;;;;;;;;;;4390983;32;20131;-81
2021/07/07 01:21:26;;;;;;;9.75;3.53;;;;;;;;;;4391347;32;20200;-80
2021/07/07 01:23:52;;;;;;;7.72;3.58;;;;;;;;;;4390946;32;20173;-81
2021/07/07 01:26:17;;;;;;;7.18;3.65;;;;;;;;;;4390620;32;20173;-81
2021/07/07 01:28:43;;;;;;;8.68;3.50;;;;;;;;;;4391026;32;20198;-81
2021/07/07 01:31:08;;;;;;;7.90;3.40;;;;;;;;;;4391060;32;20169;-81
2021/07/07 01:33:35;;;;;;;7.75;3.53;;;;;;;;;;4391120;32;20144;-80
2021/07/07 01:36:01;;;;;;;8.82;3.20;;;;;;;;;;4376951;32;20444;-80
2021/07/07 01:38:26;;;;;;;9.88;4.10;;;;;;;;;;4390825;32;20168;-81
2021/07/07 01:40:58;;;;;;;6.00;3.42;;;;;;;;;;4397454;32;20202;-81
2021/07/07 01:43:26;;;;;;;10.20;3.37;;;;;;;;;;4405572;32;20142;-81
2021/07/07 01:45:52;;;;;;;9.90;3.05;;;;;;;;;;4405550;32;20498;-81
2021/07/07 01:48:30;;;;;;;9.57;3.55;;;;;;;;;;4405696;32;20626;-81
2021/07/07 01:50:55;;;;;;;8.13;3.40;;;;;;;;;;4406535;32;20130;-80
2021/07/07 01:53:21;;;;;;;7.93;3.80;;;;;;;;;;4406186;32;20217;-81
2021/07/07 01:55:55;;;;;;;9.05;3.40;;;;;;;;;;4405508;32;20613;-81
2021/07/07 01:58:20;;;;;;;10.55;3.22;;;;;;;;;;4406128;32;20200;-81
2021/07/07 02:00:46;;;;;;;6.00;3.10;;;;;;;;;;4396656;32;20622;-81
2021/07/07 02:03:11;;;;;;;7.25;3.45;;;;;;;;;;4390602;32;20503;-81
2021/07/07 02:05:37;;;;;;;7.65;3.50;;;;;;;;;;4390504;32;20146;-81
2021/07/07 02:08:04;;;;;;;9.02;3.78;;;;;;;;;;4377089;32;20200;-81
2021/07/07 02:10:29;;;;;;;7.43;3.30;;;;;;;;;;4390938;32;20167;-82
2021/07/07 02:12:55;;;;;;;9.65;3.65;;;;;;;;;;4379951;32;20523;-81
2021/07/07 02:16:04;;;;;;;8.07;3.40;;;;;;;;;;4377325;32;20451;-81
2021/07/07 02:19:06;;;;;;;7.40;3.10;;;;;;;;;;4377224;32;20248;-81
2021/07/07 02:21:32;;;;;;;7.25;3.20;;;;;;;;;;4371838;32;20208;-81
2021/07/07 02:24:00;;;;;;;9.80;3.60;;;;;;;;;;4376145;32;20147;-81
2021/07/07 02:26:25;;;;;;;6.75;3.35;;;;;;;;;;4375951;32;20177;-81
2021/07/07 02:28:51;;;;;;;9.43;3.83;;;;;;;;;;4375995;32;20552;-81
2021/07/07 02:31:22;;;;;;;7.12;3.42;;;;;;;;;;4362244;32;20476;-81
2021/07/07 02:33:48;;;;;;;8.90;3.95;;;;;;;;;;4375879;32;20130;-81
2021/07/07 02:36:22;;;;;;;7.07;3.72;;;;;;;;;;4363951;32;20221;-81
2021/07/07 02:38:48;;;;;;;8.10;3.65;;;;;;;;;;4378941;32;20128;-82
2021/07/07 02:41:13;;;;;;;8.10;3.80;;;;;;;;;;4378329;32;20143;-81
2021/07/07 02:43:41;;;;;;;7.90;4.12;;;;;;;;;;4365325;32;20599;-82
2021/07/07 02:46:07;;;;;;;7.62;3.92;;;;;;;;;;4378236;32;20169;-80
2021/07/07 02:48:33;;;;;;;8.90;3.70;;;;;;;;;;4378364;32;20131;-81
2021/07/07 02:50:58;;;;;;;9.93;4.18;;;;;;;;;;4378335;32;20139;-81
2021/07/07 02:53:31;;;;;;;9.43;3.92;;;;;;;;;;4364373;32;20185;-81
2021/07/07 02:55:59;;;;;;;9.82;4.10;;;;;;;;;;4372749;32;20147;-82
2021/07/07 02:58:24;;;;;;;8.38;4.32;;;;;;;;;;4378386;32;20157;-82
2021/07/07 03:00:50;;;;;;;8.23;4.05;;;;;;;;;;4364510;32;20624;-82
2021/07/07 03:03:16;;;;;;;10.20;4.20;;;;;;;;;;4377655;32;20135;-80
2021/07/07 03:05:46;;;;;;;9.23;4.37;;;;;;;;;;4364409;32;20518;-81
2021/07/07 03:08:15;;;;;;;8.57;4.45;;;;;;;;;;4377464;32;20551;-81
2021/07/07 03:10:41;;;;;;;7.60;4.00;;;;;;;;;;4377825;32;20170;-81
2021/07/07 03:13:06;;;;;;;10.43;4.18;;;;;;;;;;4363954;32;20212;-80
2021/07/07 03:15:33;;;;;;;9.23;4.00;;;;;;;;;;4363731;32;20154;-81
2021/07/07 03:17:58;;;;;;;9.43;4.57;;;;;;;;;;4377394;32;20131;-80
2021/07/07 03:20:23;;;;;;;10.15;4.10;;;;;;;;;;4378048;32;20158;-81
2021/07/07 03:22:49;;;;;;;8.15;4.72;;;;;;;;;;4378293;32;20170;-80
2021/07/07 03:25:14;;;;;;;12.18;4.20;;;;;;;;;;4398303;32;20138;-80
2021/07/07 03:27:40;;;;;;;8.10;4.32;;;;;;;;;;4394541;32;20236;-80
2021/07/07 03:30:05;;;;;;;7.82;4.47;;;;;;;;;;4393043;32;20154;-80
2021/07/07 03:32:31;;;;;;;7.62;4.15;;;;;;;;;;4392991;32;20169;-81
2021/07/07 03:34:56;;;;;;;6.57;4.15;;;;;;;;;;4393308;32;20199;-81
2021/07/07 03:37:24;;;;;;;8.32;4.50;;;;;;;;;;4378833;32;20201;-81
2021/07/07 03:39:50;;;;;;;6.75;4.35;;;;;;;;;;4390841;32;20672;-81
2021/07/07 03:42:18;;;;;;;8.30;5.37;;;;;;;;;;4393208;32;20209;-80
2021/07/07 03:44:51;;;;;;;9.23;4.57;;;;;;;;;;4391188;32;20169;-81
2021/07/07 03:47:19;;;;;;;7.43;4.35;;;;;;;;;;4392383;32;20134;-81
2021/07/07 03:49:45;;;;;;;9.70;5.28;;;;;;;;;;4393112;32;20131;-81
2021/07/07 03:52:10;;;;;;;6.20;4.22;;;;;;;;;;4392225;32;20613;-80
2021/07/07 03:54:35;;;;;;;8.45;4.65;;;;;;;;;;4392133;32;20138;-81
2021/07/07 03:57:01;;;;;;;9.23;4.28;;;;;;;;;;4391734;32;20602;-80
2021/07/07 03:59:26;;;;;;;8.10;4.10;;;;;;;;;;4378144;32;20162;-80
2021/07/07 04:01:52;;;;;;;9.85;4.53;;;;;;;;;;4392254;32;20547;-80
2021/07/07 04:04:17;;;;;;;8.07;4.35;;;;;;;;;;4378082;32;20173;-81
2021/07/07 04:06:44;;;;;;;9.77;4.35;;;;;;;;;;4378692;32;20151;-81
2021/07/07 04:09:09;;;;;;;8.82;4.15;;;;;;;;;;4377817;32;20189;-80
2021/07/07 04:11:34;;;;;;;7.20;3.90;;;;;;;;;;4392125;32;20135;-82
2021/07/07 04:14:00;;;;;;;6.57;4.00;;;;;;;;;;4378592;32;20189;-80
2021/07/07 04:16:25;;;;;;;7.35;4.57;;;;;;;;;;4392102;32;20127;-81
2021/07/07 04:18:51;;;;;;;9.68;4.62;;;;;;;;;;4392203;32;20481;-81
2021/07/07 04:21:16;;;;;;;12.18;5.18;;;;;;;;;;4391499;32;20158;-80
2021/07/07 04:23:42;;;;;;;9.13;3.87;;;;;;;;;;4390046;32;20226;-80
2021/07/07 04:26:07;;;;;;;6.18;4.35;;;;;;;;;;4377682;32;20154;-78
2021/07/07 04:28:32;;;;;;;9.82;4.40;;;;;;;;;;4391935;32;20153;-81
2021/07/07 04:30:58;;;;;;;5.85;3.47;;;;;;;;;;4377808;32;20629;-80
2021/07/07 04:33:23;;;;;;;7.72;4.35;;;;;;;;;;4392204;32;20134;-80
2021/07/07 04:35:48;;;;;;;7.18;4.30;;;;;;;;;;4391723;32;20138;-82
2021/07/07 04:38:13;;;;;;;7.93;4.30;;;;;;;;;;4391678;32;20154;-81
2021/07/07 04:40:39;;;;;;;9.65;4.00;;;;;;;;;;4392259;32;20258;-80
2021/07/07 04:43:04;;;;;;;10.07;4.37;;;;;;;;;;4391775;32;20540;-81
2021/07/07 04:45:30;;;;;;;8.13;3.65;;;;;;;;;;4391762;32;20166;-80
2021/07/07 04:47:56;;;;;;;9.05;3.75;;;;;;;;;;4391290;32;20131;-81
2021/07/07 04:50:21;;;;;;;7.68;3.50;;;;;;;;;;4377583;32;20189;-80
2021/07/07 04:52:47;;;;;;;7.97;4.20;;;;;;;;;;4392014;32;20126;-80
2021/07/07 04:55:13;;;;;;;6.30;3.75;;;;;;;;;;4392718;32;20139;-81
2021/07/07 04:57:41;;;;;;;7.82;4.12;;;;;;;;;;4406890;32;20119;-81
2021/07/07 05:00:14;;;;;;;7.60;4.00;;;;;;;;;;4405848;32;20616;-80
2021/07/07 05:02:42;;;;;;;7.72;3.33;;;;;;;;;;4406588;32;20180;-82
2021/07/07 05:05:09;;;;;;;7.78;3.65;;;;;;;;;;4405296;32;20543;-81
2021/07/07 05:07:34;;;;;;;6.55;3.70;;;;;;;;;;4406319;32;20153;-80
2021/07/07 05:10:01;;;;;;;7.32;3.30;;;;;;;;;;4405930;32;20169;-81
2021/07/07 05:12:26;;;;;;;5.03;3.30;;;;;;;;;;4405980;32;20198;-80
2021/07/07 05:14:51;;;;;;;7.15;3.03;;;;;;;;;;4405993;32;20126;-81
2021/07/07 05:17:25;;;;;;;8.13;2.80;;;;;;;;;;4406366;32;20130;-80
2021/07/07 05:19:50;;;;;;;9.05;2.92;;;;;;;;;;4378128;32;20539;-80
2021/07/07 05:22:16;;;;;;;6.00;2.78;;;;;;;;;;4377320;32;20180;-80
2021/07/07 05:24:41;;;;;;;6.78;2.92;;;;;;;;;;4399840;32;20138;-81
2021/07/07 05:27:06;;;;;;;8.00;3.08;;;;;;;;;;4392027;32;20566;-80
2021/07/07 05:29:32;;;;;;;7.40;2.65;;;;;;;;;;4406147;32;20150;-80
2021/07/07 05:31:58;;;;;;;8.52;3.33;;;;;;;;;;4404592;32;20263;-80
2021/07/07 05:34:24;;;;;;;7.78;2.60;;;;;;;;;;4390650;32;20135;-81
2021/07/07 05:36:49;;;;;;;8.75;3.00;;;;;;;;;;4402534;32;20361;-81
2021/07/07 05:39:15;;;;;;;8.45;3.28;;;;;;;;;;4405973;32;20555;-80
2021/07/07 05:41:42;;;;;;;5.62;3.70;;;;;;;;;;4391882;32;20717;-80
2021/07/07 05:44:08;;;;;;;7.60;3.55;;;;;;;;;;4405835;32;20131;-79
2021/07/07 05:46:33;;;;;;;5.10;3.30;;;;;;;;;;4391934;32;20196;-78
2021/07/07 05:48:58;;;;;;;9.25;3.50;;;;;;;;;;4387001;32;20154;-77
2021/07/07 05:51:24;;;;;;;6.65;3.40;;;;;;;;;;4398286;32;20217;-81
2021/07/07 05:53:49;;;;;;;5.10;3.42;;;;;;;;;;4378069;32;20730;-80
2021/07/07 05:56:14;;;;;;;7.05;3.62;;;;;;;;;;4401438;32;20221;-80
2021/07/07 05:58:40;;;;;;;8.30;3.70;;;;;;;;;;4405543;32;20162;-81
2021/07/07 06:01:05;;;;;;;9.07;3.78;;;;;;;;;;4405491;32;20134;-82
2021/07/07 06:03:31;;;;;;;7.28;3.42;;;;;;;;;;4405561;32;20169;-81
2021/07/07 06:05:59;;;;;;;9.27;3.40;;;;;;;;;;4400917;32;20201;-80
2021/07/07 06:08:24;;;;;;;7.70;3.25;;;;;;;;;;4401352;32;20142;-75
2021/07/07 06:10:50;;;;;;;6.75;3.10;;;;;;;;;;4403957;32;20227;-80
2021/07/07 06:13:15;;;;;;;8.90;4.07;;;;;;;;;;4404877;32;20465;-81
2021/07/07 06:15:40;;;;;;;12.48;4.05;;;;;;;;;;4404875;32;20510;-79
2021/07/07 06:18:06;;;;;;;6.15;3.47;;;;;;;;;;4404331;32;20138;-80
2021/07/07 06:20:32;;;;;;;6.70;3.78;;;;;;;;;;4404960;32;20134;-78
2021/07/07 06:22:58;;;;;;;9.85;3.95;;;;;;;;;;4404844;32;20141;-79
2021/07/07 06:25:23;;;;;;;5.50;3.20;;;;;;;;;;4405252;32;20532;-81
2021/07/07 06:27:51;;;;;;;6.25;3.40;;;;;;;;;;4405210;32;20157;-81
2021/07/07 06:30:18;;;;;;;6.40;3.08;;;;;;;;;;4403066;32;20141;-83
2021/07/07 06:32:44;;;;;;;6.22;3.00;;;;;;;;;;4391660;32;20131;-79
2021/07/07 06:35:09;;;;;;;6.07;3.17;;;;;;;;;;4389753;32;20479;-82
2021/07/07 06:37:48;;;;;;;8.10;3.80;;;;;;;;;;4381259;32;20208;-81
2021/07/07 06:40:22;;;;;;;8.80;3.30;;;;;;;;;;4393710;32;20163;-79
2021/07/07 06:42:50;;;;;;;7.35;3.25;;;;;;;;;;4405350;32;20478;-76
2021/07/07 06:45:15;;;;;;;5.95;3.17;;;;;;;;;;4390792;32;20185;-79
2021/07/07 06:47:41;;;;;;;7.22;2.83;;;;;;;;;;4404591;32;20439;-77
2021/07/07 06:50:14;;;;;;;6.62;3.17;;;;;;;;;;4391863;32;20207;-81
2021/07/07 06:52:39;;;;;;;8.00;2.87;;;;;;;;;;4390086;32;20142;-81
2021/07/07 06:55:08;;;;;;;7.43;3.20;;;;;;;;;;4396615;32;20213;-81
2021/07/07 06:57:36;;;;;;;6.78;2.65;;;;;;;;;;4405571;32;20202;-80
2021/07/07 07:00:04;;;;;;;6.80;3.30;;;;;;;;;;4404732;32;20551;-81
2021/07/07 07:02:30;;;;;;;4.25;2.67;;;;;;;;;;4400338;32;20213;-80
2021/07/07 07:04:56;;;;;;;5.00;2.97;;;;;;;;;;4399821;32;20142;-80
2021/07/07 07:07:21;;;;;;;7.50;3.30;;;;;;;;;;4403358;32;20192;-81
2021/07/07 07:09:47;;;;;;;5.68;3.15;;;;;;;;;;4391673;32;20142;-80
2021/07/07 07:12:12;;;;;;;6.93;3.25;;;;;;;;;;4389895;32;20127;-81
2021/07/07 07:14:37;;;;;;;6.85;3.53;;;;;;;;;;4394427;32;20204;-81
2021/07/07 07:17:02;;;;;;;8.75;4.18;;;;;;;;;;4388110;32;20178;-81
2021/07/07 07:19:28;;;;;;;7.85;3.87;;;;;;;;;;4389726;32;20191;-80
2021/07/07 07:21:53;;;;;;;6.57;4.37;;;;;;;;;;4390782;32;20151;-81
2021/07/07 07:24:18;;;;;;;7.57;4.20;;;;;;;;;;4392569;32;20431;-80
2021/07/07 07:26:44;;;;;;;9.45;4.22;;;;;;;;;;4391951;32;20130;-81
2021/07/07 07:29:15;;;;;;;6.57;4.18;;;;;;;;;;4391835;32;20222;-79
2021/07/07 07:31:43;;;;;;;10.55;4.35;;;;;;;;;;4392806;32;20613;-79
2021/07/07 07:34:08;;;;;;;8.57;4.62;;;;;;;;;;4399085;32;20586;-81
2021/07/07 07:36:33;;;;;;;9.88;4.65;;;;;;;;;;4398170;32;20134;-81
2021/07/07 07:39:00;;;;;;;10.47;4.47;;;;;;;;;;4407230;32;20504;-80
2021/07/07 07:41:30;;;;;;;9.65;4.47;;;;;;;;;;4386487;32;20726;-79
2021/07/07 07:43:55;;;;;;;6.57;4.53;;;;;;;;;;4405994;32;20241;-79
2021/07/07 07:46:20;;;;;;;7.97;4.03;;;;;;;;;;4398104;32;20452;-79
2021/07/07 07:48:46;;;;;;;7.75;3.95;;;;;;;;;;4390655;32;20166;-81
2021/07/07 07:51:11;;;;;;;5.97;3.65;;;;;;;;;;4391134;32;20186;-80
2021/07/07 07:53:36;;;;;;;6.82;3.75;;;;;;;;;;4391633;32;20134;-82
2021/07/07 07:56:01;;;;;;;6.72;3.75;;;;;;;;;;4392969;32;20346;-81
2021/07/07 07:58:27;;;;;;;8.10;3.62;;;;;;;;;;4390786;32;20225;-81
2021/07/07 08:00:52;;;;;;;8.13;4.50;;;;;;;;;;4390742;32;20189;-80
2021/07/07 08:03:17;;;;;;;5.55;3.42;;;;;;;;;;4390659;32;20154;-81
2021/07/07 08:05:43;;;;;;;4.97;2.90;;;;;;;;;;4406172;32;20157;-81
2021/07/07 08:08:09;;;;;;;6.90;3.28;;;;;;;;;;4392819;32;20142;-81
2021/07/07 08:10:35;;;;;;;8.13;2.97;;;;;;;;;;4391563;32;20655;-81
2021/07/07 08:13:00;;;;;;;3.53;2.40;;;;;;;;;;4377917;32;20198;-80
2021/07/07 08:15:26;;;;;;;6.22;2.65;;;;;;;;;;4399270;32;20126;-80
2021/07/07 08:17:52;;;;;;;5.30;2.58;;;;;;;;;;4400185;32;20142;-82
2021/07/07 08:20:18;;;;;;;5.78;3.10;;;;;;;;;;4396004;32;20161;-81
2021/07/07 08:22:43;;;;;;;6.00;3.00;;;;;;;;;;4392223;32;20189;-82
2021/07/07 08:25:10;;;;;;;5.12;2.87;;;;;;;;;;4404692;32;20173;-81
2021/07/07 08:27:41;;;;;;;3.70;2.40;;;;;;;;;;4400029;32;20172;-81
2021/07/07 08:30:07;;;;;;;5.20;2.65;;;;;;;;;;4393857;32;20174;-79
2021/07/07 08:32:33;;;;;;;5.37;2.78;;;;;;;;;;4401329;32;20142;-80
2021/07/07 08:35:01;;;;;;;6.65;2.70;;;;;;;;;;4395020;32;20641;-79
2021/07/07 08:37:26;;;;;;;5.75;3.28;;;;;;;;;;4385975;32;20158;-80
2021/07/07 08:39:52;;;;;;;5.70;3.00;;;;;;;;;;4377263;32;20686;-80
2021/07/07 08:42:17;;;;;;;6.75;2.50;;;;;;;;;;4390196;32;20127;-80
2021/07/07 08:44:46;;;;;;;4.82;2.70;;;;;;;;;;4376953;32;20241;-80
2021/07/07 08:47:11;;;;;;;6.03;2.58;;;;;;;;;;4392008;32;20181;-80
2021/07/07 08:49:37;;;;;;;4.70;2.70;;;;;;;;;;4399020;32;20221;-81
2021/07/07 08:52:03;;;;;;;4.47;2.40;;;;;;;;;;4394346;32;20437;-80
2021/07/07 08:54:30;;;;;;;4.47;2.40;;;;;;;;;;4391613;32;20170;-80
2021/07/07 08:57:07;;;;;;;5.45;2.50;;;;;;;;;;4406319;32;20188;-80
2021/07/07 08:59:32;;;;;;;5.25;2.55;;;;;;;;;;4406164;32;20217;-78
2021/07/07 09:02:11;;;;;;;4.47;2.80;;;;;;;;;;4406098;32;20134;-79
2021/07/07 09:04:38;;;;;;;6.82;2.35;;;;;;;;;;4391776;32;20521;-81
2021/07/07 09:07:05;;;;;;;4.65;2.40;;;;;;;;;;4403253;32;20168;-80
2021/07/07 09:09:36;;;;;;;5.75;2.15;;;;;;;;;;4390659;32;20178;-81
2021/07/07 09:12:10;;;;;;;4.05;2.58;;;;;;;;;;4403209;32;20180;-79
2021/07/07 09:14:35;;;;;;;2.87;1.92;;;;;;;;;;4405137;32;20165;-81
2021/07/07 09:17:02;;;;;;;5.47;2.40;;;;;;;;;;4405969;32;20516;-82
2021/07/07 09:19:29;;;;;;;8.05;2.60;;;;;;;;;;4405854;32;20303;-78
2021/07/07 09:21:56;;;;;;;6.65;2.47;;;;;;;;;;4405959;32;20169;-82
2021/07/07 09:24:24;;;;;;;3.75;2.53;;;;;;;;;;4405849;32;20594;-81
2021/07/07 09:27:05;;;;;;;7.25;2.50;;;;;;;;;;4405502;32;20483;-80
2021/07/07 09:29:30;;;;;;;5.07;2.30;;;;;;;;;;4406119;32;20222;-81
2021/07/07 09:31:56;;;;;;;5.57;3.22;;;;;;;;;;4405257;32;20454;-79
2021/07/07 09:34:24;;;;;;;5.53;2.40;;;;;;;;;;4405830;32;20134;-82
2021/07/07 09:36:54;;;;;;;4.45;2.53;;;;;;;;;;4405094;32;20161;-80
2021/07/07 09:39:22;;;;;;;5.97;2.53;;;;;;;;;;4405564;32;20153;-81
2021/07/07 09:41:49;;;;;;;5.40;2.70;;;;;;;;;;4394152;32;20150;-80
2021/07/07 09:44:15;;;;;;;5.12;2.45;;;;;;;;;;4399307;32;20143;-81
2021/07/07 09:46:40;;;;;;;5.97;2.92;;;;;;;;;;4390096;32;20381;-80
2021/07/07 09:49:06;;;;;;;5.85;2.90;;;;;;;;;;4390577;32;20143;-80
2021/07/07 09:51:34;;;;;;;5.90;2.53;;;;;;;;;;4390284;32;20139;-82
2021/07/07 09:54:04;;;;;;;5.50;2.62;;;;;;;;;;4390341;32;20146;-80
2021/07/07 09:56:30;;;;;;;6.00;2.58;;;;;;;;;;4390428;32;20173;-79
2021/07/07 09:58:58;;;;;;;7.12;3.05;;;;;;;;;;4396258;32;20146;-80
2021/07/07 10:01:26;;;;;;;4.65;3.03;;;;;;;;;;4405781;32;20134;-81
2021/07/07 10:03:51;;;;;;;3.95;2.50;;;;;;;;;;4405805;32;20240;-81
2021/07/07 10:06:17;;;;;;;6.37;2.60;;;;;;;;;;4405303;32;20421;-80
2021/07/07 10:08:42;;;;;;;6.60;2.90;;;;;;;;;;4404884;32;20197;-79
2021/07/07 10:11:17;;;;;;;5.93;2.47;;;;;;;;;;4391251;32;20163;-82
2021/07/07 10:13:46;;;;;;;4.57;2.53;;;;;;;;;;4405554;32;20126;-81
2021/07/07 10:16:12;;;;;;;6.00;2.22;;;;;;;;;;4404274;32;20174;-79
2021/07/07 10:18:41;;;;;;;5.87;2.75;;;;;;;;;;4404198;32;20126;-80
2021/07/07 10:21:10;;;;;;;5.30;2.40;;;;;;;;;;4405151;32;20149;-80
2021/07/07 10:23:48;;;;;;;6.65;2.60;;;;;;;;;;4405079;32;20169;-82
2021/07/07 10:26:13;;;;;;;4.85;2.53;;;;;;;;;;4405727;32;20121;-80
2021/07/07 10:28:42;;;;;;;6.53;2.30;;;;;;;;;;4405399;32;20165;-80
2021/07/07 10:31:21;;;;;;;6.80;2.00;;;;;;;;;;4391458;32;20444;-80
2021/07/07 10:33:47;;;;;;;4.20;2.10;;;;;;;;;;4405513;32;20127;-80
2021/07/07 10:36:16;;;;;;;3.80;2.10;;;;;;;;;;4405750;32;20126;-81
2021/07/07 10:39:00;;;;;;;4.50;2.40;;;;;;;;;;4391796;32;20203;-78
2021/07/07 10:41:44;;;;;;;3.70;2.55;;;;;;;;;;4405276;32;20155;-81
2021/07/07 10:44:30;;;;;;;3.95;2.62;;;;;;;;;;4391246;32;20162;-81
2021/07/07 10:46:55;;;;;;;4.95;2.45;;;;;;;;;;4405526;32;20134;-81
2021/07/07 10:49:27;;;;;;;5.22;2.47;;;;;;;;;;4404961;32;20212;-81
2021/07/07 10:51:54;;;;;;;5.32;2.40;;;;;;;;;;4405638;32;20170;-80
2021/07/07 10:54:23;;;;;;;9.07;2.95;;;;;;;;;;4404657;32;20173;-81
2021/07/07 10:56:50;;;;;;;5.60;2.53;;;;;;;;;;4406326;32;20174;-79
2021/07/07 10:59:36;;;;;;;5.43;2.50;;;;;;;;;;4407932;32;20153;-81
2021/07/07 11:02:06;;;;;;;4.68;2.78;;;;;;;;;;4408132;32;20470;-80
2021/07/07 11:04:39;;;;;;;4.37;2.70;;;;;;;;;;4408264;32;20137;-81
2021/07/07 11:07:25;;;;;;;6.35;3.12;;;;;;;;;;4393512;32;20154;-82
2021/07/07 11:09:57;;;;;;;7.00;3.37;;;;;;;;;;4407749;32;20152;-81
2021/07/07 11:12:31;;;;;;;6.85;3.75;;;;;;;;;;4393075;32;20162;-82
2021/07/07 11:15:13;;;;;;;7.10;4.10;;;;;;;;;;4408315;32;20123;-80
2021/07/07 11:17:42;;;;;;;5.40;3.20;;;;;;;;;;4407538;32;20137;-81
2021/07/07 11:20:46;;;;;;;7.93;3.08;;;;;;;;;;4408040;32;20130;-79
2021/07/07 11:23:11;;;;;;;7.05;3.50;;;;;;;;;;4331165;33;20194;-81
2021/07/07 11:25:40;;;;;;;5.07;3.30;;;;;;;;;;4330627;33;20292;-79
2021/07/07 11:28:11;;;;;;;3.87;3.30;;;;;;;;;;4366332;32;20563;-80
2021/07/07 11:30:37;;;;;;;11.38;5.05;;;;;;;;;;4407936;32;20114;-80
2021/07/07 11:33:09;;;;;;;4.85;3.05;;;;;;;;;;4394096;32;20227;-82
2021/07/07 11:35:38;;;;;;;5.30;3.40;;;;;;;;;;4408130;32;20491;-83
2021/07/07 11:38:10;;;;;;;14.75;4.45;;;;;;;;;;4407456;32;20201;-83
2021/07/07 11:40:37;;;;;;;6.03;3.10;;;;;;;;;;4408011;32;20126;-82
2021/07/07 11:43:13;;;;;;;6.40;2.97;;;;;;;;;;4407492;32;20187;-83
2021/07/07 11:45:58;;;;;;;5.00;3.20;;;;;;;;;;4407579;32;20149;-81
2021/07/07 11:50:59;;;;;;;5.57;2.53;;;;;;;;;;4407461;32;20146;-83
2021/07/07 11:53:55;;;;;;;6.22;2.70;;;;;;;;;;4407515;32;20180;-82
2021/07/07 11:56:24;;;;;;;6.03;3.10;;;;;;;;;;4406897;32;20239;-81
2021/07/07 11:58:50;;;;;;;8.35;3.55;;;;;;;;;;4407257;32;20164;-82
2021/07/07 12:01:20;;;;;;;4.53;2.78;;;;;;;;;;4393083;32;20532;-79
2021/07/07 12:03:54;;;;;;;5.53;2.53;;;;;;;;;;4407107;32;20164;-78
2021/07/07 12:06:27;;;;;;;7.22;2.72;;;;;;;;;;4407550;32;20150;-82
2021/07/07 12:08:53;;;;;;;4.18;2.85;;;;;;;;;;4407356;32;20420;-81
2021/07/07 12:11:19;;;;;;;7.93;3.00;;;;;;;;;;4406914;32;20130;-81
2021/07/07 12:13:45;;;;;;;7.12;3.50;;;;;;;;;;4407053;32;20126;-81
2021/07/07 12:16:17;;;;;;;7.10;3.00;;;;;;;;;;4406726;32;20563;-80
2021/07/07 12:18:43;;;;;;;5.25;3.25;;;;;;;;;;4394002;32;20162;-81
2021/07/07 12:21:08;;;;;;;6.30;3.47;;;;;;;;;;4406811;32;20142;-77
2021/07/07 12:23:47;;;;;;;4.10;2.72;;;;;;;;;;4406804;32;20523;-78
2021/07/07 12:26:13;;;;;;;5.60;3.03;;;;;;;;;;4406798;32;20123;-80
2021/07/07 12:28:38;;;;;;;5.40;2.80;;;;;;;;;;4406503;32;20424;-80
2021/07/07 12:31:04;;;;;;;5.68;2.95;;;;;;;;;;4407343;32;20255;-81
2021/07/07 12:33:32;;;;;;;5.10;2.70;;;;;;;;;;4406525;32;20577;-81
2021/07/07 12:35:57;;;;;;;6.70;3.00;;;;;;;;;;4406589;32;20153;-80
2021/07/07 12:38:22;;;;;;;5.03;2.53;;;;;;;;;;4392807;32;20162;-79
2021/07/07 12:40:54;;;;;;;6.65;2.62;;;;;;;;;;4392584;32;20513;-81
2021/07/07 12:43:27;;;;;;;5.85;3.00;;;;;;;;;;4406260;32;20598;-80
2021/07/07 12:46:01;;;;;;;7.18;3.08;;;;;;;;;;4406878;32;20581;-80
2021/07/07 12:48:26;;;;;;;5.55;2.97;;;;;;;;;;4393499;32;20204;-79
2021/07/07 12:50:52;;;;;;;5.87;2.50;;;;;;;;;;4405940;32;20123;-81
2021/07/07 12:53:30;;;;;;;5.68;2.50;;;;;;;;;;4406231;32;20134;-80
2021/07/07 12:56:07;;;;;;;5.72;2.12;;;;;;;;;;4406506;32;20166;-81
2021/07/07 12:58:32;;;;;;;6.68;2.60;;;;;;;;;;4379862;32;20184;-80
2021/07/07 13:01:03;;;;;;;3.30;2.20;;;;;;;;;;4405725;32;20176;-81
2021/07/07 13:03:55;;;;;;;5.07;2.20;;;;;;;;;;4406914;32;20172;-81
2021/07/07 13:06:22;;;;;;;4.45;2.60;;;;;;;;;;4382942;32;20693;-80
2021/07/07 13:08:48;;;;;;;5.12;2.72;;;;;;;;;;4406324;32;20521;-79
2021/07/07 13:11:17;;;;;;;4.28;2.20;;;;;;;;;;4406381;32;20209;-81
2021/07/07 13:13:43;;;;;;;7.32;2.70;;;;;;;;;;4405733;32;20123;-82
2021/07/07 13:16:13;;;;;;;4.93;2.75;;;;;;;;;;4405903;32;20150;-81
2021/07/07 13:19:00;;;;;;;5.80;2.42;;;;;;;;;;4379634;32;20600;-79
2021/07/07 13:21:30;;;;;;;4.93;2.58;;;;;;;;;;4392785;32;20154;-82
2021/07/07 13:23:55;;;;;;;4.10;2.53;;;;;;;;;;4391048;32;20134;-79
2021/07/07 13:26:30;;;;;;;4.62;2.90;;;;;;;;;;4390828;32;20193;-83
2021/07/07 13:29:14;;;;;;;4.72;2.33;;;;;;;;;;4389296;32;20204;-80
2021/07/07 13:31:39;;;;;;;4.03;2.40;;;;;;;;;;4390350;32;20551;-81
2021/07/07 13:34:04;;;;;;;5.47;2.60;;;;;;;;;;4397049;32;20138;-82
2021/07/07 13:36:45;;;;;;;7.18;3.30;;;;;;;;;;4405245;32;20624;-80
2021/07/07 13:39:10;;;;;;;7.65;3.20;;;;;;;;;;4404510;32;20241;-81
2021/07/07 13:41:39;;;;;;;7.60;3.03;;;;;;;;;;4405067;32;20235;-81
2021/07/07 13:44:04;;;;;;;4.68;2.80;;;;;;;;;;4405745;32;20142;-82
2021/07/07 13:46:30;;;;;;;6.03;2.55;;;;;;;;;;4405845;32;20123;-80
2021/07/07 13:48:55;;;;;;;3.60;2.70;;;;;;;;;;4397955;32;20225;-81
2021/07/07 13:51:20;;;;;;;3.75;2.70;;;;;;;;;;4401856;32;20265;-79
2021/07/07 13:53:46;;;;;;;5.60;3.10;;;;;;;;;;4391143;32;20150;-80
2021/07/07 13:56:14;;;;;;;4.57;3.00;;;;;;;;;;4405908;32;20172;-81
2021/07/07 13:58:39;;;;;;;5.40;3.30;;;;;;;;;;4405010;32;20261;-81
2021/07/07 14:01:04;;;;;;;8.23;3.80;;;;;;;;;;4393365;32;20184;-81
2021/07/07 14:03:30;;;;;;;6.35;3.65;;;;;;;;;;4405585;32;20164;-80
2021/07/07 14:05:57;;;;;;;6.80;3.08;;;;;;;;;;4405048;32;20211;-81
2021/07/07 14:08:22;;;;;;;5.10;2.58;;;;;;;;;;4405459;32;20130;-79
2021/07/07 14:10:48;;;;;;;2.70;2.30;;;;;;;;;;4405662;32;20188;-80
2021/07/07 14:13:13;;;;;;;3.72;2.17;;;;;;;;;;4405099;32;20126;-79
2021/07/07 14:15:39;;;;;;;2.50;2.17;;;;;;;;;;4405454;32;20131;-81
2021/07/07 14:18:04;;;;;;;4.15;2.70;;;;;;;;;;4405110;32;20122;-80
2021/07/07 14:20:31;;;;;;;6.72;3.00;;;;;;;;;;4405054;32;20558;-80
2021/07/07 14:22:59;;;;;;;6.55;2.62;;;;;;;;;;4405223;32;20146;-81
2021/07/07 14:28:29;;;;;;;4.95;2.40;;;;;;;;;;4403834;32;20204;-81
2021/07/07 14:30:57;;;;;;;6.62;2.40;;;;;;;;;;4385611;32;20248;-81
2021/07/07 14:33:40;;;;;;;6.90;3.25;;;;;;;;;;4391077;32;20173;-81
2021/07/07 14:36:06;;;;;;;6.12;3.00;;;;;;;;;;4405184;32;20126;-80
2021/07/07 14:38:31;;;;;;;7.93;3.62;;;;;;;;;;4405528;32;20179;-80
2021/07/07 14:40:57;;;;;;;4.43;2.42;;;;;;;;;;4404248;32;20237;-79
2021/07/07 14:43:22;;;;;;;4.20;2.50;;;;;;;;;;4395191;32;20142;-80
2021/07/07 14:45:47;;;;;;;9.98;4.10;;;;;;;;;;4390133;32;20196;-80
2021/07/07 14:48:20;;;;;;;4.50;2.58;;;;;;;;;;4391542;32;20150;-82
2021/07/07 14:51:04;;;;;;;;;;;;;;;;;;;;;
2021/07/07 14:53:31;;;;;;;4.28;2.15;;;;;;;;;;4397330;32;20189;-80